Time;durP1;ratioP1;P1;durP2;ratioP2;P2;SDS_P1;SDS_P2;PMS_P1;PMS_P2;Temp;Humidity;BMP_temperature;BMP_pressure;BME280_temperature;BME280_humidity;BME280_pressure;Samples;Min_cycle;Max_cycle;Signal;HPM_P1;HPM_P2
2022/03/23 00:00:04;;;;;;;;;;;22.30;25.30;;;;;;4844073;29;19932;-76
2022/03/23 00:02:30;;;;;;;;;;;22.30;25.30;;;;;;4843731;29;19979;-77
2022/03/23 00:04:57;;;;;;;;;;;22.30;25.30;;;;;;4843452;29;19967;-76
2022/03/23 00:07:24;;;;;;;;;;;22.30;25.30;;;;;;4842550;29;20001;-76
2022/03/23 00:09:51;;;;;;;;;;;22.30;25.30;;;;;;4843787;29;19932;-75
2022/03/23 00:12:24;;;;;;;;;;;22.30;25.30;;;;;;4843418;29;19981;-75
2022/03/23 00:14:50;;;;;;;;;;;22.30;25.30;;;;;;4843734;29;20019;-76
2022/03/23 00:17:17;;;;;;;;;;;22.30;25.30;;;;;;4843799;29;20388;-76
2022/03/23 00:19:45;;;;;;;;;;;22.30;25.30;;;;;;4838814;29;19929;-75
2022/03/23 00:22:13;;;;;;;;;;;22.20;25.30;;;;;;4843693;29;20028;-75
2022/03/23 00:24:39;;;;;;;;;;;22.20;25.30;;;;;;4843626;29;20027;-76
2022/03/23 00:27:06;;;;;;;;;;;22.20;25.30;;;;;;4843478;29;20371;-75
2022/03/23 00:29:34;;;;;;;;;;;22.20;25.30;;;;;;4843482;29;19982;-75
2022/03/23 00:32:01;;;;;;;;;;;22.20;25.30;;;;;;4843531;29;20024;-76
2022/03/23 00:34:28;;;;;;;;;;;22.20;25.30;;;;;;4844076;29;20022;-75
2022/03/23 00:36:55;;;;;;;;;;;22.20;25.30;;;;;;4843583;29;19929;-75
2022/03/23 00:39:22;;;;;;;;;;;22.20;25.30;;;;;;4843777;29;19936;-75
2022/03/23 00:41:50;;;;;;;;;;;22.20;25.40;;;;;;4843388;29;19987;-76
2022/03/23 00:44:17;;;;;;;;;;;22.20;25.40;;;;;;4840129;29;20035;-76
2022/03/23 00:46:45;;;;;;;;;;;22.20;25.40;;;;;;4840795;29;20031;-75
2022/03/23 00:49:12;;;;;;;;;;;22.20;25.40;;;;;;4838980;29;19928;-75
2022/03/23 00:51:40;;;;;;;;;;;22.20;25.40;;;;;;4837883;29;20019;-76
2022/03/23 00:54:09;;;;;;;;;;;22.20;25.40;;;;;;4840210;29;19928;-75
2022/03/23 00:56:37;;;;;;;;;;;22.20;25.40;;;;;;4840650;29;19987;-76
2022/03/23 00:59:07;;;;;;;;;;;22.10;25.40;;;;;;4840909;29;19969;-76
2022/03/23 01:01:34;;;;;;;;;;;22.10;25.40;;;;;;4840345;29;19984;-76
2022/03/23 01:04:02;;;;;;;;;;;22.10;25.40;;;;;;4840087;29;19933;-76
2022/03/23 01:06:29;;;;;;;;;;;22.10;25.40;;;;;;4840091;29;19928;-75
2022/03/23 01:08:56;;;;;;;;;;;22.10;25.40;;;;;;4840593;29;20016;-75
2022/03/23 01:11:23;;;;;;;;;;;22.10;25.40;;;;;;4840149;29;19983;-75
2022/03/23 01:13:50;;;;;;;;;;;22.10;25.40;;;;;;4840051;29;19976;-75
2022/03/23 01:16:17;;;;;;;;;;;22.10;25.40;;;;;;4857534;29;19971;-75
2022/03/23 01:18:44;;;;;;;;;;;22.10;25.40;;;;;;4858078;29;19934;-73
2022/03/23 01:21:13;;;;;;;;;;;22.10;25.40;;;;;;4854426;29;19974;-74
2022/03/23 01:23:40;;;;;;;;;;;22.10;25.40;;;;;;4858002;29;20026;-75
2022/03/23 01:26:07;;;;;;;;;;;22.10;25.40;;;;;;4858486;29;19978;-75
2022/03/23 01:28:35;;;;;;;;;;;22.10;25.40;;;;;;4858292;29;19974;-75
2022/03/23 01:31:02;;;;;;;;;;;22.10;25.40;;;;;;4858501;29;19985;-75
2022/03/23 01:33:29;;;;;;;;;;;22.10;25.40;;;;;;4858440;29;20330;-75
2022/03/23 01:35:57;;;;;;;;;;;22.10;25.40;;;;;;4858215;29;19928;-75
2022/03/23 01:38:24;;;;;;;;;;;22.10;25.40;;;;;;4857891;29;19971;-75
2022/03/23 01:40:51;;;;;;;;;;;22.10;25.40;;;;;;4858729;29;19928;-76
2022/03/23 01:43:18;;;;;;;;;;;22.10;25.40;;;;;;4858279;29;19984;-75
2022/03/23 01:45:45;;;;;;;;;;;22.10;25.40;;;;;;4857870;29;19979;-75
2022/03/23 01:48:13;;;;;;;;;;;22.10;25.40;;;;;;4858059;29;20397;-75
2022/03/23 01:50:41;;;;;;;;;;;22.10;25.40;;;;;;4858041;29;20476;-76
2022/03/23 01:53:08;;;;;;;;;;;22.10;25.40;;;;;;4853695;29;20019;-75
2022/03/23 01:55:35;;;;;;;;;;;22.10;25.40;;;;;;4856834;29;19986;-75
2022/03/23 01:58:02;;;;;;;;;;;22.10;25.40;;;;;;4858257;29;19928;-75
2022/03/23 02:00:31;;;;;;;;;;;22.10;25.40;;;;;;4857652;29;19928;-75
2022/03/23 02:02:58;;;;;;;;;;;22.10;25.40;;;;;;4858056;29;19928;-75
2022/03/23 02:05:25;;;;;;;;;;;22.10;25.50;;;;;;4857809;29;20003;-76
2022/03/23 02:07:54;;;;;;;;;;;22.10;25.50;;;;;;4857538;29;19987;-76
2022/03/23 02:10:22;;;;;;;;;;;22.00;25.50;;;;;;4857800;29;19975;-75
2022/03/23 02:12:49;;;;;;;;;;;22.00;25.50;;;;;;4857511;29;19964;-76
2022/03/23 02:15:17;;;;;;;;;;;22.00;25.50;;;;;;4857358;29;20039;-75
2022/03/23 02:17:45;;;;;;;;;;;22.00;25.60;;;;;;4857362;29;20027;-75
2022/03/23 02:20:12;;;;;;;;;;;22.00;25.60;;;;;;4857024;29;20018;-75
2022/03/23 02:22:39;;;;;;;;;;;22.00;25.60;;;;;;4857901;29;19980;-75
2022/03/23 02:25:07;;;;;;;;;;;22.00;25.70;;;;;;4852599;29;20382;-75
2022/03/23 02:27:36;;;;;;;;;;;22.00;25.70;;;;;;4871609;29;19979;-75
2022/03/23 02:30:07;;;;;;;;;;;22.00;25.70;;;;;;4857456;29;20123;-75
2022/03/23 02:32:35;;;;;;;;;;;22.00;25.80;;;;;;4871382;29;19984;-75
2022/03/23 02:35:03;;;;;;;;;;;22.00;25.80;;;;;;4857159;29;19979;-75
2022/03/23 02:37:30;;;;;;;;;;;22.00;25.80;;;;;;4857070;29;19932;-75
2022/03/23 02:39:57;;;;;;;;;;;22.00;25.90;;;;;;4857022;29;19978;-76
2022/03/23 02:42:24;;;;;;;;;;;22.00;25.90;;;;;;4857428;29;19935;-75
2022/03/23 02:44:51;;;;;;;;;;;22.00;25.90;;;;;;4856721;29;20357;-75
2022/03/23 02:47:18;;;;;;;;;;;22.00;25.90;;;;;;4855486;29;20404;-75
2022/03/23 02:49:45;;;;;;;;;;;22.00;25.90;;;;;;4854343;29;19975;-75
2022/03/23 02:52:12;;;;;;;;;;;22.00;25.90;;;;;;4854968;29;20027;-75
2022/03/23 03:03:23;;;;;;;;;;;21.90;25.80;;;;;;4855478;29;20000;-76
2022/03/23 03:05:50;;;;;;;;;;;21.90;25.80;;;;;;4854703;29;19931;-76
2022/03/23 03:11:03;;;;;;;;;;;21.90;25.80;;;;;;4855247;29;19979;-75
2022/03/23 03:13:30;;;;;;;;;;;21.90;25.80;;;;;;4854577;29;20350;-75
2022/03/23 03:16:05;;;;;;;;;;;21.90;25.80;;;;;;4854249;29;19928;-75
2022/03/23 03:18:33;;;;;;;;;;;21.90;25.90;;;;;;4854719;29;19976;-75
2022/03/23 03:21:08;;;;;;;;;;;21.90;25.90;;;;;;4854391;29;19928;-76
2022/03/23 03:23:38;;;;;;;;;;;21.90;25.90;;;;;;4854807;29;19951;-76
2022/03/23 03:26:06;;;;;;;;;;;21.90;25.90;;;;;;4854166;29;20023;-76
2022/03/23 03:28:35;;;;;;;;;;;21.90;25.90;;;;;;4850616;29;19965;-76
2022/03/23 03:31:03;;;;;;;;;;;21.90;25.90;;;;;;4854562;29;19932;-76
2022/03/23 03:33:30;;;;;;;;;;;21.90;25.90;;;;;;4854683;29;19959;-77
2022/03/23 03:35:57;;;;;;;;;;;21.90;25.90;;;;;;4854592;29;19972;-75
2022/03/23 03:38:24;;;;;;;;;;;21.90;25.90;;;;;;4854128;29;19931;-75
2022/03/23 03:40:52;;;;;;;;;;;21.90;25.90;;;;;;4854329;29;20022;-76
2022/03/23 03:43:19;;;;;;;;;;;21.90;25.90;;;;;;4854828;29;20382;-75
2022/03/23 03:45:46;;;;;;;;;;;21.90;25.90;;;;;;4853890;29;20338;-75
2022/03/23 03:48:13;;;;;;;;;;;21.90;25.90;;;;;;4854545;29;20289;-76
2022/03/23 03:50:41;;;;;;;;;;;21.90;25.90;;;;;;4854524;29;19968;-76
2022/03/23 03:53:08;;;;;;;;;;;21.90;25.90;;;;;;4854887;29;19969;-76
2022/03/23 03:55:36;;;;;;;;;;;21.90;25.90;;;;;;4852421;29;19932;-75
2022/03/23 03:58:03;;;;;;;;;;;21.80;25.90;;;;;;4854069;29;20477;-76
2022/03/23 04:00:31;;;;;;;;;;;21.90;25.90;;;;;;4850430;29;20354;-75
2022/03/23 04:02:58;;;;;;;;;;;21.90;25.90;;;;;;4854362;29;20385;-76
2022/03/23 04:05:25;;;;;;;;;;;21.90;25.90;;;;;;4854688;29;19935;-76
2022/03/23 04:07:52;;;;;;;;;;;21.90;26.00;;;;;;4854467;29;19936;-75
2022/03/23 04:10:19;;;;;;;;;;;21.90;26.00;;;;;;4854312;29;20026;-76
2022/03/23 04:12:46;;;;;;;;;;;21.90;26.00;;;;;;4854515;29;19928;-76
2022/03/23 04:15:14;;;;;;;;;;;21.90;25.90;;;;;;4852585;29;19967;-75
2022/03/23 04:17:42;;;;;;;;;;;21.80;25.90;;;;;;4846156;29;20031;-75
2022/03/23 04:20:09;;;;;;;;;;;21.80;25.90;;;;;;4833697;29;19928;-76
2022/03/23 04:22:38;;;;;;;;;;;21.80;25.90;;;;;;4839462;29;20182;-75
2022/03/23 04:25:07;;;;;;;;;;;21.80;25.90;;;;;;4839106;29;20426;-76
2022/03/23 04:27:34;;;;;;;;;;;21.80;25.90;;;;;;4838202;29;19983;-75
2022/03/23 04:30:01;;;;;;;;;;;21.80;25.90;;;;;;4837237;29;20655;-75
2022/03/23 04:32:28;;;;;;;;;;;21.80;25.90;;;;;;4849333;29;20465;-76
2022/03/23 04:34:59;;;;;;;;;;;21.80;25.90;;;;;;4831492;29;19928;-76
2022/03/23 04:37:25;;;;;;;;;;;21.80;25.90;;;;;;4820519;29;20535;-76
2022/03/23 04:39:52;;;;;;;;;;;21.80;25.90;;;;;;4819049;29;19932;-75
2022/03/23 04:42:19;;;;;;;;;;;21.80;25.90;;;;;;4821130;29;19964;-76
2022/03/23 04:44:46;;;;;;;;;;;21.80;25.90;;;;;;4820459;29;20469;-76
2022/03/23 04:47:13;;;;;;;;;;;21.80;25.90;;;;;;4819974;29;19929;-76
2022/03/23 04:49:40;;;;;;;;;;;21.80;25.90;;;;;;4820358;29;20035;-75
2022/03/23 04:52:07;;;;;;;;;;;21.80;25.90;;;;;;4820449;29;19933;-75
2022/03/23 04:54:34;;;;;;;;;;;21.80;25.90;;;;;;4820392;29;19975;-76
2022/03/23 04:57:01;;;;;;;;;;;21.80;25.90;;;;;;4818323;29;20387;-76
2022/03/23 04:59:28;;;;;;;;;;;21.80;25.90;;;;;;4821374;29;20260;-76
2022/03/23 05:01:55;;;;;;;;;;;21.70;26.30;;;;;;4824865;29;20002;-76
2022/03/23 05:04:22;;;;;;;;;;;21.80;25.90;;;;;;4819663;29;19933;-76
2022/03/23 05:06:49;;;;;;;;;;;21.80;25.90;;;;;;4833120;29;20000;-76
2022/03/23 05:09:16;;;;;;;;;;;21.80;25.90;;;;;;4837878;29;20019;-76
2022/03/23 05:11:43;;;;;;;;;;;21.80;25.90;;;;;;4836729;29;20027;-75
2022/03/23 05:14:10;;;;;;;;;;;21.80;25.90;;;;;;4833418;29;20299;-75
2022/03/23 05:16:37;;;;;;;;;;;21.80;25.90;;;;;;4833446;29;19936;-76
2022/03/23 05:19:04;;;;;;;;;;;21.80;25.80;;;;;;4830775;29;19940;-76
2022/03/23 05:21:31;;;;;;;;;;;21.80;25.80;;;;;;4829804;29;19929;-75
2022/03/23 05:23:58;;;;;;;;;;;21.80;25.80;;;;;;4827144;29;20345;-75
2022/03/23 05:26:25;;;;;;;;;;;21.80;25.80;;;;;;4827274;29;19963;-75
2022/03/23 05:28:52;;;;;;;;;;;21.90;25.80;;;;;;4827210;29;20165;-76
2022/03/23 05:31:19;;;;;;;;;;;21.90;25.80;;;;;;4827518;29;20406;-76
2022/03/23 05:33:46;;;;;;;;;;;21.90;25.80;;;;;;4824436;29;20383;-76
2022/03/23 05:36:14;;;;;;;;;;;21.90;25.80;;;;;;4820779;29;19928;-76
2022/03/23 05:38:41;;;;;;;;;;;21.90;25.70;;;;;;4823564;29;19929;-76
2022/03/23 05:41:07;;;;;;;;;;;21.90;25.70;;;;;;4831995;29;19975;-76
2022/03/23 05:43:34;;;;;;;;;;;21.90;25.70;;;;;;4824967;29;19993;-76
2022/03/23 05:46:01;;;;;;;;;;;21.90;25.70;;;;;;4833664;29;19975;-75
2022/03/23 05:48:28;;;;;;;;;;;21.90;25.70;;;;;;4827730;29;19979;-76
2022/03/23 05:51:00;;;;;;;;;;;22.00;25.70;;;;;;4846582;29;19937;-75
2022/03/23 05:53:27;;;;;;;;;;;22.00;25.70;;;;;;4828716;29;20374;-76
2022/03/23 05:55:54;;;;;;;;;;;22.00;25.70;;;;;;4849142;29;19971;-75
2022/03/23 05:58:22;;;;;;;;;;;22.00;25.60;;;;;;4833059;29;19996;-75
2022/03/23 06:00:49;;;;;;;;;;;22.00;25.60;;;;;;4825337;29;20259;-76
2022/03/23 06:03:16;;;;;;;;;;;22.00;25.60;;;;;;4820483;29;20326;-75
2022/03/23 06:05:43;;;;;;;;;;;22.00;25.60;;;;;;4825541;29;19936;-75
2022/03/23 06:08:10;;;;;;;;;;;22.00;25.60;;;;;;4832441;29;20412;-75
2022/03/23 06:10:37;;;;;;;;;;;22.00;25.60;;;;;;4827812;29;20015;-75
2022/03/23 06:13:04;;;;;;;;;;;22.00;25.40;;;;;;4831302;29;19981;-76
2022/03/23 06:15:31;;;;;;;;;;;22.00;25.30;;;;;;4831101;29;19971;-74
2022/03/23 06:17:58;;;;;;;;;;;22.00;25.30;;;;;;4828824;29;19932;-74
2022/03/23 06:20:28;;;;;;;;;;;22.00;25.30;;;;;;4833110;29;20027;-73
2022/03/23 06:22:55;;;;;;;;;;;22.00;25.30;;;;;;4828260;29;19976;-64
2022/03/23 06:25:24;;;;;;;;;;;22.00;25.40;;;;;;4841390;29;19984;-63
2022/03/23 06:27:52;;;;;;;;;;;22.00;25.50;;;;;;4829114;29;19929;-63
2022/03/23 06:30:19;;;;;;;;;;;22.00;25.50;;;;;;4830289;29;20115;-63
2022/03/23 06:32:46;;;;;;;;;;;22.10;25.60;;;;;;4822483;29;19932;-62
2022/03/23 06:35:13;;;;;;;;;;;22.10;25.50;;;;;;4826086;29;19932;-63
2022/03/23 06:37:40;;;;;;;;;;;22.10;25.50;;;;;;4820706;29;19984;-64
2022/03/23 06:40:07;;;;;;;;;;;22.20;25.50;;;;;;4828289;29;19993;-64
2022/03/23 06:42:34;;;;;;;;;;;22.20;25.40;;;;;;4824828;29;19993;-65
2022/03/23 06:45:04;;;;;;;;;;;22.20;25.40;;;;;;4828097;29;20021;-70
2022/03/23 06:47:31;;;;;;;;;;;22.30;25.40;;;;;;4826732;29;20363;-72
2022/03/23 06:49:58;;;;;;;;;;;22.30;25.30;;;;;;4825506;29;20001;-76
2022/03/23 06:52:30;;;;;;;;;;;22.40;25.40;;;;;;4826443;29;19968;-63
2022/03/23 06:54:57;;;;;;;;;;;22.40;25.30;;;;;;4822993;29;19991;-64
2022/03/23 06:57:24;;;;;;;;;;;22.50;25.30;;;;;;4826046;29;19948;-64
2022/03/23 06:59:51;;;;;;;;;;;22.50;25.30;;;;;;4826942;29;19937;-63
2022/03/23 07:02:18;;;;;;;;;;;22.60;25.30;;;;;;4825254;29;19937;-64
2022/03/23 07:04:45;;;;;;;;;;;22.70;25.30;;;;;;4824774;29;19950;-62
2022/03/23 07:07:12;;;;;;;;;;;22.70;25.40;;;;;;4825344;29;19936;-64
2022/03/23 07:09:40;;;;;;;;;;;22.80;25.40;;;;;;4826216;29;19929;-67
2022/03/23 07:12:09;;;;;;;;;;;22.80;25.50;;;;;;4828461;29;19932;-64
2022/03/23 07:14:36;;;;;;;;;;;22.90;25.50;;;;;;4827371;29;19967;-64
2022/03/23 07:17:04;;;;;;;;;;;23.00;25.40;;;;;;4825161;29;19935;-64
2022/03/23 07:19:32;;;;;;;;;;;23.00;25.20;;;;;;4827736;29;19964;-64
2022/03/23 07:21:59;;;;;;;;;;;23.10;25.10;;;;;;4825176;29;20031;-65
2022/03/23 07:24:26;;;;;;;;;;;23.10;25.00;;;;;;4830106;29;19975;-65
2022/03/23 07:26:53;;;;;;;;;;;23.20;25.00;;;;;;4822948;29;20442;-64
2022/03/23 07:29:40;;;;;;;;;;;23.30;24.90;;;;;;4825650;29;19943;-64
2022/03/23 07:32:07;;;;;;;;;;;23.30;24.80;;;;;;4829307;29;19928;-64
2022/03/23 07:34:34;;;;;;;;;;;23.40;24.70;;;;;;4834560;29;20279;-62
2022/03/23 07:37:01;;;;;;;;;;;23.50;24.70;;;;;;4821736;29;20425;-62
2022/03/23 07:39:29;;;;;;;;;;;23.50;24.60;;;;;;4814657;29;19936;-64
2022/03/23 07:41:56;;;;;;;;;;;23.50;24.70;;;;;;4828669;29;19929;-64
2022/03/23 07:44:23;;;;;;;;;;;23.60;24.70;;;;;;4829268;29;20477;-63
2022/03/23 07:46:52;;;;;;;;;;;23.60;24.90;;;;;;4821988;29;19947;-66
2022/03/23 07:49:19;;;;;;;;;;;23.70;25.00;;;;;;4825172;29;20019;-64
2022/03/23 07:51:47;;;;;;;;;;;23.70;25.10;;;;;;4822237;29;21144;-62
2022/03/23 07:54:14;;;;;;;;;;;23.80;25.10;;;;;;4823873;29;20402;-68
2022/03/23 07:56:41;;;;;;;;;;;23.90;24.90;;;;;;4829021;29;20021;-69
2022/03/23 07:59:08;;;;;;;;;;;23.90;24.80;;;;;;4828181;29;20358;-67
2022/03/23 08:01:35;;;;;;;;;;;24.00;24.90;;;;;;4848594;29;19929;-68
2022/03/23 08:04:05;;;;;;;;;;;24.00;24.70;;;;;;4829605;29;20540;-68
2022/03/23 08:06:35;;;;;;;;;;;24.10;24.60;;;;;;4828428;29;20344;-66
2022/03/23 08:09:02;;;;;;;;;;;24.10;24.60;;;;;;4829857;29;19936;-66
2022/03/23 08:11:30;;;;;;;;;;;24.20;24.60;;;;;;4824193;29;19997;-66
2022/03/23 08:13:59;;;;;;;;;;;24.30;24.50;;;;;;4831487;29;20018;-64
2022/03/23 08:16:26;;;;;;;;;;;24.30;24.50;;;;;;4830969;29;19972;-63
2022/03/23 08:18:53;;;;;;;;;;;24.30;24.50;;;;;;4829116;29;19948;-65
2022/03/23 08:21:21;;;;;;;;;;;24.30;24.90;;;;;;4827588;29;20005;-65
2022/03/23 08:23:48;;;;;;;;;;;24.40;24.40;;;;;;4826907;29;19963;-63
2022/03/23 08:26:17;;;;;;;;;;;24.40;24.40;;;;;;4826759;29;20358;-64
2022/03/23 08:28:45;;;;;;;;;;;24.50;24.60;;;;;;4828246;29;19992;-62
2022/03/23 08:31:12;;;;;;;;;;;24.50;24.60;;;;;;4829433;29;20023;-62
2022/03/23 08:33:39;;;;;;;;;;;24.50;24.50;;;;;;4830324;29;19936;-72
2022/03/23 08:36:07;;;;;;;;;;;24.60;24.40;;;;;;4829230;29;20378;-63
2022/03/23 08:38:35;;;;;;;;;;;24.70;24.40;;;;;;4833238;29;19971;-63
2022/03/23 08:41:02;;;;;;;;;;;24.70;24.40;;;;;;4830151;29;20398;-63
2022/03/23 08:43:30;;;;;;;;;;;24.80;24.50;;;;;;4824607;29;20018;-63
2022/03/23 08:45:57;;;;;;;;;;;24.80;24.40;;;;;;4824595;29;19968;-65
2022/03/23 08:48:24;;;;;;;;;;;24.80;24.20;;;;;;4831419;29;19929;-66
2022/03/23 08:50:55;;;;;;;;;;;24.90;24.20;;;;;;4825374;29;19935;-67
2022/03/23 08:53:23;;;;;;;;;;;24.90;24.30;;;;;;4827381;29;19972;-65
2022/03/23 08:55:50;;;;;;;;;;;25.00;24.20;;;;;;4827445;29;19993;-63
2022/03/23 08:58:17;;;;;;;;;;;25.00;24.10;;;;;;4829645;29;19928;-66
2022/03/23 09:00:44;;;;;;;;;;;25.00;24.30;;;;;;4830074;29;20015;-65
2022/03/23 09:03:13;;;;;;;;;;;25.10;24.40;;;;;;4829242;29;19940;-66
2022/03/23 09:05:41;;;;;;;;;;;25.10;24.30;;;;;;4829336;29;19969;-66
2022/03/23 09:08:08;;;;;;;;;;;25.10;24.10;;;;;;4826838;29;19928;-66
2022/03/23 09:10:35;;;;;;;;;;;25.20;24.00;;;;;;4831843;29;20410;-65
2022/03/23 09:13:02;;;;;;;;;;;25.20;24.00;;;;;;4830129;29;20006;-72
2022/03/23 09:15:30;;;;;;;;;;;25.20;23.80;;;;;;4844121;29;19965;-68
2022/03/23 09:17:58;;;;;;;;;;;25.30;24.10;;;;;;4830307;29;19964;-69
2022/03/23 09:20:28;;;;;;;;;;;25.30;24.30;;;;;;4828734;29;20023;-65
2022/03/23 09:22:56;;;;;;;;;;;25.30;24.60;;;;;;4828627;29;19936;-64
2022/03/23 09:25:24;;;;;;;;;;;25.20;24.50;;;;;;4825666;29;19984;-64
2022/03/23 09:27:52;;;;;;;;;;;25.20;24.80;;;;;;4829809;29;19994;-71
2022/03/23 09:30:19;;;;;;;;;;;25.20;24.90;;;;;;4830202;29;19929;-67
2022/03/23 09:32:47;;;;;;;;;;;25.20;25.00;;;;;;4827005;29;19993;-66
2022/03/23 09:35:15;;;;;;;;;;;25.20;24.80;;;;;;4830981;29;19936;-65
2022/03/23 09:37:49;;;;;;;;;;;25.20;24.60;;;;;;4824103;29;20023;-62
2022/03/23 09:40:24;;;;;;;;;;;25.10;24.30;;;;;;4832592;29;19933;-66
2022/03/23 09:42:59;;;;;;;;;;;25.10;23.60;;;;;;4828910;29;21166;-68
2022/03/23 09:48:16;;;;;;;;;;;25.00;23.10;;;;;;4838327;29;19932;-75
2022/03/23 09:50:45;;;;;;;;;;;25.00;23.70;;;;;;4826482;29;19960;-77
2022/03/23 09:53:12;;;;;;;;;;;24.90;22.90;;;;;;4823720;29;20385;-68
2022/03/23 09:55:41;;;;;;;;;;;24.90;23.60;;;;;;4824784;29;20000;-71
2022/03/23 09:58:09;;;;;;;;;;;24.90;23.70;;;;;;4825362;29;20337;-70
2022/03/23 10:00:38;;;;;;;;;;;24.90;23.50;;;;;;4829513;29;19956;-69
2022/03/23 10:03:25;;;;;;;;;;;24.90;23.60;;;;;;4827614;29;19960;-68
2022/03/23 10:06:04;;;;;;;;;;;24.90;23.80;;;;;;4843119;29;19943;-73
2022/03/23 10:08:52;;;;;;;;;;;24.80;23.40;;;;;;4831063;29;19929;-66
2022/03/23 10:11:39;;;;;;;;;;;24.80;23.90;;;;;;4831756;29;20302;-73
2022/03/23 10:14:25;;;;;;;;;;;24.70;22.90;;;;;;4826275;29;19989;-75
2022/03/23 10:17:12;;;;;;;;;;;24.70;22.20;;;;;;4821906;29;19933;-68
2022/03/23 10:19:43;;;;;;;;;;;24.60;22.50;;;;;;4824966;29;19986;-68
2022/03/23 10:22:11;;;;;;;;;;;24.60;23.10;;;;;;4833665;29;19964;-75
2022/03/23 10:24:38;;;;;;;;;;;24.50;22.60;;;;;;4830911;29;20382;-72
2022/03/23 10:27:06;;;;;;;;;;;24.50;21.90;;;;;;4834105;29;19932;-71
2022/03/23 10:29:39;;;;;;;;;;;24.40;22.50;;;;;;4829919;29;20026;-66
2022/03/23 10:32:08;;;;;;;;;;;24.30;22.60;;;;;;4827737;29;20015;-69
2022/03/23 10:34:46;;;;;;;;;;;24.40;23.10;;;;;;4827170;29;19997;-69
2022/03/23 10:37:15;;;;;;;;;;;24.40;23.70;;;;;;4826510;29;19964;-68
2022/03/23 10:39:47;;;;;;;;;;;24.50;23.90;;;;;;4826271;29;19979;-68
2022/03/23 10:42:15;;;;;;;;;;;24.50;24.20;;;;;;4825612;29;20031;-74
2022/03/23 10:44:42;;;;;;;;;;;24.50;24.20;;;;;;4823385;29;19937;-71
2022/03/23 10:47:20;;;;;;;;;;;24.60;24.30;;;;;;4830196;29;20015;-69
2022/03/23 10:49:47;;;;;;;;;;;24.60;24.30;;;;;;4822641;29;20397;-69
2022/03/23 10:52:15;;;;;;;;;;;24.70;24.30;;;;;;4824407;29;19983;-72
2022/03/23 10:54:53;;;;;;;;;;;24.70;24.40;;;;;;4830408;29;19997;-76
2022/03/23 10:57:21;;;;;;;;;;;24.70;24.50;;;;;;4829065;29;20024;-73
2022/03/23 10:59:48;;;;;;;;;;;24.80;24.50;;;;;;4829131;29;20011;-69
2022/03/23 11:02:16;;;;;;;;;;;24.80;24.50;;;;;;4825791;29;20032;-72
2022/03/23 11:04:47;;;;;;;;;;;24.80;24.50;;;;;;4826117;29;20356;-73
2022/03/23 11:07:28;;;;;;;;;;;24.90;24.50;;;;;;4826803;29;19989;-72
2022/03/23 11:15:49;;;;;;;;;;;24.90;24.60;;;;;;4828779;29;20117;-75
2022/03/23 11:18:17;;;;;;;;;;;25.00;25.00;;;;;;4828399;29;19928;-75
2022/03/23 11:20:47;;;;;;;;;;;25.00;24.60;;;;;;4826497;29;19936;-75
2022/03/23 11:23:33;;;;;;;;;;;25.00;24.50;;;;;;4828105;29;20023;-76
2022/03/23 11:26:01;;;;;;;;;;;25.00;24.40;;;;;;4826863;29;20032;-76
2022/03/23 11:28:29;;;;;;;;;;;25.10;24.30;;;;;;4826320;29;19936;-75
2022/03/23 11:30:58;;;;;;;;;;;25.10;24.20;;;;;;4828241;29;20039;-76
2022/03/23 11:33:26;;;;;;;;;;;25.10;24.20;;;;;;4830132;29;19934;-76
2022/03/23 11:35:53;;;;;;;;;;;25.10;24.10;;;;;;4829642;29;20019;-74
2022/03/23 11:38:22;;;;;;;;;;;25.10;24.00;;;;;;4827680;29;20534;-71
2022/03/23 11:40:50;;;;;;;;;;;25.10;24.00;;;;;;4828154;29;19935;-73
2022/03/23 11:43:19;;;;;;;;;;;25.10;23.90;;;;;;4824522;29;19980;-73
2022/03/23 11:46:08;;;;;;;;;;;25.10;23.90;;;;;;4826945;29;19933;-74
2022/03/23 11:48:55;;;;;;;;;;;25.10;23.80;;;;;;4830606;29;19928;-74
2022/03/23 11:51:42;;;;;;;;;;;25.10;23.80;;;;;;4842949;29;20350;-74
2022/03/23 11:55:36;;;;;;;;;;;25.10;23.70;;;;;;4836274;29;19975;-75
2022/03/23 11:57:16;;;;;;;;;;;25.10;23.70;;;;;;4827483;29;20011;-75
2022/03/23 11:59:43;;;;;;;;;;;25.20;23.70;;;;;;4830483;29;20064;-75
2022/03/23 12:02:10;;;;;;;;;;;25.20;23.70;;;;;;4830587;29;19937;-71
2022/03/23 12:04:38;;;;;;;;;;;25.20;22.90;;;;;;4831811;29;20301;-70
2022/03/23 12:07:06;;;;;;;;;;;25.10;21.50;;;;;;4827922;29;20569;-72
2022/03/23 12:09:37;;;;;;;;;;;25.10;21.50;;;;;;4822618;29;20811;-74
2022/03/23 12:12:05;;;;;;;;;;;24.90;20.90;;;;;;4836771;29;20023;-72
2022/03/23 12:14:34;;;;;;;;;;;24.90;21.60;;;;;;4824115;29;19932;-77
2022/03/23 12:17:02;;;;;;;;;;;24.90;22.00;;;;;;4825309;29;19933;-74
2022/03/23 12:19:53;;;;;;;;;;;24.90;22.20;;;;;;4822132;29;19932;-72
2022/03/23 12:22:40;;;;;;;;;;;24.90;22.40;;;;;;4819492;29;19941;-73
2022/03/23 12:25:17;;;;;;;;;;;25.00;22.60;;;;;;4823645;29;19937;-75
2022/03/23 12:27:54;;;;;;;;;;;25.00;22.70;;;;;;4826679;29;19939;-73
2022/03/23 12:30:34;;;;;;;;;;;25.10;22.70;;;;;;4823926;29;20355;-74
2022/03/23 12:33:12;;;;;;;;;;;25.10;22.80;;;;;;4821736;29;19937;-73
2022/03/23 12:35:40;;;;;;;;;;;25.10;22.80;;;;;;4825467;29;19967;-71
2022/03/23 12:38:18;;;;;;;;;;;25.20;22.90;;;;;;4824267;29;19936;-70
2022/03/23 12:40:46;;;;;;;;;;;25.20;22.80;;;;;;4826045;29;20028;-71
2022/03/23 12:43:34;;;;;;;;;;;25.20;22.80;;;;;;4826498;29;20366;-68
2022/03/23 12:46:01;;;;;;;;;;;25.30;22.70;;;;;;4826781;29;20467;-67
2022/03/23 12:59:52;;;;;;;;;;;25.30;22.70;;;;;;4839819;29;20031;-62
2022/03/23 13:02:27;;;;;;;;;;;25.30;22.90;;;;;;4830186;29;20031;-63
2022/03/23 13:04:55;;;;;;;;;;;25.40;23.10;;;;;;4829118;29;20023;-70
2022/03/23 13:07:40;;;;;;;;;;;25.40;23.40;;;;;;4827714;29;19994;-71
2022/03/23 13:10:12;;;;;;;;;;;25.40;23.80;;;;;;4826094;29;19976;-71
2022/03/23 13:12:39;;;;;;;;;;;25.40;24.10;;;;;;4829946;29;20342;-64
2022/03/23 13:15:10;;;;;;;;;;;25.40;24.20;;;;;;4831461;29;19960;-73
2022/03/23 13:17:46;;;;;;;;;;;25.40;24.40;;;;;;4828649;29;20359;-71
2022/03/23 13:20:14;;;;;;;;;;;25.50;24.60;;;;;;4829577;29;20450;-65
2022/03/23 13:22:41;;;;;;;;;;;25.50;24.70;;;;;;4830962;29;19985;-68
2022/03/23 13:25:17;;;;;;;;;;;25.50;24.80;;;;;;4830464;29;19929;-67
2022/03/23 13:27:46;;;;;;;;;;;25.50;25.00;;;;;;4827968;29;19968;-68
2022/03/23 13:30:14;;;;;;;;;;;25.50;24.80;;;;;;4832729;29;19971;-69
2022/03/23 13:32:46;;;;;;;;;;;25.50;24.60;;;;;;4830854;29;20023;-70
2022/03/23 13:35:15;;;;;;;;;;;25.50;24.20;;;;;;4826179;29;19982;-69
2022/03/23 13:38:02;;;;;;;;;;;25.50;24.00;;;;;;4827838;29;19929;-68
2022/03/23 13:43:20;;;;;;;;;;;25.50;23.60;;;;;;4828380;29;19941;-69
2022/03/23 13:45:48;;;;;;;;;;;25.50;23.50;;;;;;4826368;29;21691;-68
2022/03/23 13:48:16;;;;;;;;;;;25.50;23.50;;;;;;4826161;29;19928;-70
2022/03/23 13:50:47;;;;;;;;;;;25.50;23.40;;;;;;4830430;29;20015;-72
2022/03/23 13:53:17;;;;;;;;;;;25.50;23.50;;;;;;4826760;29;19988;-68
2022/03/23 13:55:47;;;;;;;;;;;25.50;23.50;;;;;;4828521;29;19980;-65
2022/03/23 13:58:19;;;;;;;;;;;25.50;23.60;;;;;;4825444;29;19959;-66
2022/03/23 14:00:50;;;;;;;;;;;25.50;23.60;;;;;;4831908;29;19939;-66
2022/03/23 14:03:23;;;;;;;;;;;25.60;23.60;;;;;;4823788;29;20015;-66
2022/03/23 14:06:04;;;;;;;;;;;25.60;23.60;;;;;;4830653;29;19939;-71
2022/03/23 14:08:36;;;;;;;;;;;25.60;23.50;;;;;;4824159;29;19937;-69
2022/03/23 14:11:04;;;;;;;;;;;25.60;23.50;;;;;;4828355;29;20413;-67
2022/03/23 14:13:34;;;;;;;;;;;25.60;23.40;;;;;;4826668;29;20493;-69
2022/03/23 14:16:03;;;;;;;;;;;25.60;23.30;;;;;;4830259;29;19929;-67
2022/03/23 14:18:31;;;;;;;;;;;25.60;23.00;;;;;;4827505;29;19936;-69
2022/03/23 14:21:00;;;;;;;;;;;25.60;22.30;;;;;;4829818;29;19937;-71
2022/03/23 14:23:31;;;;;;;;;;;25.60;22.70;;;;;;4829749;29;19957;-71
2022/03/23 14:26:19;;;;;;;;;;;25.50;22.70;;;;;;4824652;29;20020;-72
2022/03/23 14:28:47;;;;;;;;;;;25.40;21.40;;;;;;4826745;29;19991;-70
2022/03/23 14:31:22;;;;;;;;;;;25.40;20.10;;;;;;4828497;29;20841;-74
2022/03/23 14:33:50;;;;;;;;;;;25.30;20.20;;;;;;4829028;29;19936;-71
2022/03/23 14:36:21;;;;;;;;;;;25.20;19.90;;;;;;4828251;29;19979;-69
2022/03/23 14:38:49;;;;;;;;;;;25.20;19.80;;;;;;4828212;29;19936;-70
2022/03/23 14:41:19;;;;;;;;;;;25.10;20.40;;;;;;4828872;29;20552;-71
2022/03/23 14:43:48;;;;;;;;;;;25.10;20.90;;;;;;4830434;29;20019;-70
2022/03/23 14:46:26;;;;;;;;;;;25.10;21.30;;;;;;4827233;29;19929;-69
2022/03/23 14:49:00;;;;;;;;;;;25.10;21.50;;;;;;4828500;29;19936;-68
2022/03/23 14:51:27;;;;;;;;;;;25.20;21.70;;;;;;4827547;29;20015;-67
2022/03/23 14:53:55;;;;;;;;;;;25.20;21.80;;;;;;4826245;29;19960;-68
2022/03/23 14:56:22;;;;;;;;;;;25.20;21.90;;;;;;4823305;29;20030;-65
2022/03/23 14:58:49;;;;;;;;;;;25.20;22.00;;;;;;4825825;29;20009;-68
2022/03/23 15:01:16;;;;;;;;;;;25.20;22.10;;;;;;4822752;29;19985;-66